Time;durP1;ratioP1;P1;durP2;ratioP2;P2;SDS_P1;SDS_P2;PMS_P1;PMS_P2;Temp;Humidity;BMP_temperature;BMP_pressure;BME280_temperature;BME280_humidity;BME280_pressure;Samples;Min_cycle;Max_cycle;Signal;HPM_P1;HPM_P2
2021/08/30 00:04:13;;;;;;;21.83;15.15;;;15.30;99.90;;;;;;12504793;28;20048;-37
2021/08/30 00:10:45;;;;;;;21.38;15.60;;;15.40;99.90;;;;;;12521161;28;20048;-37
2021/08/30 00:17:21;;;;;;;23.77;15.70;;;15.40;99.90;;;;;;12514145;28;20453;-37
2021/08/30 00:23:52;;;;;;;26.77;17.10;;;15.30;99.90;;;;;;12526099;28;20053;-37
2021/08/30 00:30:15;;;;;;;24.53;16.00;;;15.30;99.90;;;;;;12530970;28;20140;-40
2021/08/30 00:36:37;;;;;;;24.23;16.55;;;15.20;99.90;;;;;;12533400;28;20076;-38
2021/08/30 00:43:11;;;;;;;22.08;15.68;;;15.10;99.90;;;;;;12527259;28;20116;-38
2021/08/30 00:49:52;;;;;;;23.50;15.63;;;15.20;99.90;;;;;;12526819;28;20057;-38
2021/08/30 00:56:37;;;;;;;24.15;16.35;;;15.20;99.90;;;;;;12504293;28;20433;-37
2021/08/30 01:03:04;;;;;;;28.42;16.55;;;15.20;99.90;;;;;;12520225;28;20596;-38
2021/08/30 01:10:09;;;;;;;22.20;15.57;;;15.10;99.90;;;;;;12529246;28;20048;-38
2021/08/30 01:16:56;;;;;;;26.05;17.13;;;15.20;99.90;;;;;;12495690;28;20192;-37
2021/08/30 01:23:20;;;;;;;21.02;16.55;;;15.10;99.90;;;;;;12534549;28;20060;-38
2021/08/30 01:30:04;;;;;;;27.35;16.63;;;15.10;99.90;;;;;;12527144;28;20068;-37
2021/08/30 01:36:35;;;;;;;23.30;16.73;;;15.10;99.90;;;;;;12520064;28;20051;-37
2021/08/30 01:42:48;;;;;;;22.70;16.27;;;15.20;99.90;;;;;;12533934;28;20175;-37
2021/08/30 01:48:55;;;;;;;24.15;17.23;;;15.10;99.90;;;;;;12536627;28;20048;-37
2021/08/30 01:55:35;;;;;;;22.42;16.95;;;15.10;99.90;;;;;;12516851;28;20049;-37
2021/08/30 02:01:47;;;;;;;24.98;17.65;;;15.20;99.90;;;;;;12532954;28;20053;-38
2021/08/30 02:07:49;;;;;;;22.85;17.35;;;15.10;99.90;;;;;;12525884;28;20051;-38
2021/08/30 02:13:59;;;;;;;27.88;18.77;;;15.10;99.90;;;;;;12517089;28;20060;-38
2021/08/30 02:20:12;;;;;;;25.42;18.08;;;15.10;99.90;;;;;;12513648;28;20049;-37
2021/08/30 02:26:55;;;;;;;21.33;16.58;;;15.20;99.90;;;;;;12537757;28;20044;-37
2021/08/30 02:33:36;;;;;;;27.48;16.85;;;15.20;99.90;;;;;;12536525;28;20049;-37
2021/08/30 02:40:16;;;;;;;25.67;17.77;;;15.30;99.90;;;;;;12531417;28;20080;-39
2021/08/30 02:47:02;;;;;;;28.63;19.20;;;15.30;99.90;;;;;;12531460;28;20060;-38
2021/08/30 02:53:45;;;;;;;30.92;19.77;;;15.20;99.90;;;;;;12508349;28;20060;-38
2021/08/30 03:00:01;;;;;;;29.63;20.63;;;15.20;99.90;;;;;;12531853;28;20080;-38
2021/08/30 03:07:09;;;;;;;28.85;20.77;;;15.10;99.90;;;;;;12525957;28;20041;-37
2021/08/30 03:14:05;;;;;;;30.85;20.80;;;15.20;99.90;;;;;;12503495;28;20045;-38
2021/08/30 03:20:40;;;;;;;27.67;20.95;;;15.20;99.90;;;;;;12522034;28;20061;-37
2021/08/30 03:27:02;;;;;;;31.25;21.77;;;15.20;99.90;;;;;;12531543;28;20040;-39
2021/08/30 03:33:33;;;;;;;33.35;22.02;;;15.20;99.90;;;;;;12513005;28;20056;-37
2021/08/30 03:39:53;;;;;;;33.15;21.88;;;15.10;99.90;;;;;;12517706;28;20056;-38
2021/08/30 03:46:08;;;;;;;34.08;22.35;;;15.10;99.90;;;;;;12523274;28;20041;-38
2021/08/30 03:52:37;;;;;;;;;;;15.20;99.90;;;;;;12527877;28;20057;-38
2021/08/30 03:59:20;;;;;;;33.45;21.83;;;15.10;99.90;;;;;;12535542;28;20346;-38
2021/08/30 04:05:31;;;;;;;31.25;20.92;;;15.10;99.90;;;;;;12517962;28;20124;-38
2021/08/30 04:11:58;;;;;;;29.85;21.85;;;15.10;99.90;;;;;;12522849;28;20052;-37
2021/08/30 04:18:28;;;;;;;35.70;22.70;;;15.10;99.90;;;;;;12531041;28;20045;-37
2021/08/30 04:24:53;;;;;;;31.73;21.67;;;15.10;99.90;;;;;;12502016;28;20481;-38
2021/08/30 04:31:28;;;;;;;33.70;23.27;;;15.10;99.90;;;;;;12540801;28;20101;-40
2021/08/30 04:37:59;;;;;;;33.75;23.02;;;15.20;99.90;;;;;;12523468;28;20068;-37
2021/08/30 04:44:26;;;;;;;33.35;23.65;;;15.20;99.90;;;;;;12497693;28;20049;-39
2021/08/30 04:50:57;;;;;;;35.10;23.35;;;15.10;99.90;;;;;;12526687;28;20081;-37
2021/08/30 04:57:17;;;;;;;36.17;24.10;;;15.10;99.90;;;;;;12529494;28;20048;-37
2021/08/30 05:03:58;;;;;;;32.70;22.70;;;15.10;99.90;;;;;;12515562;28;20041;-37
2021/08/30 05:10:48;;;;;;;32.22;22.77;;;15.10;99.90;;;;;;12517235;28;20067;-39
2021/08/30 05:17:26;;;;;;;32.15;23.02;;;15.10;99.90;;;;;;12529224;28;20413;-37
2021/08/30 05:23:51;;;;;;;33.28;23.50;;;15.10;99.90;;;;;;12521642;28;20049;-37
2021/08/30 05:30:19;;;;;;;31.95;22.95;;;15.10;99.90;;;;;;12536000;28;21681;-37
2021/08/30 05:36:37;;;;;;;31.15;20.88;;;15.20;99.90;;;;;;12528461;28;20501;-37
2021/08/30 05:43:04;;;;;;;33.45;20.75;;;15.20;99.90;;;;;;12520633;28;20041;-37
2021/08/30 05:49:23;;;;;;;29.27;20.02;;;15.20;99.90;;;;;;12536543;28;20770;-39
2021/08/30 06:03:36;;;;;;;26.97;20.10;;;15.30;99.90;;;;;;12521252;28;20181;-37
2021/08/30 06:10:16;;;;;;;27.98;20.65;;;15.30;99.90;;;;;;12528784;28;20191;-38
2021/08/30 06:17:06;;;;;;;27.35;19.98;;;15.30;99.90;;;;;;12497375;28;20052;-37
2021/08/30 06:23:59;;;;;;;28.08;20.70;;;15.20;99.90;;;;;;12523122;28;20045;-38
2021/08/30 06:30:43;;;;;;;32.42;20.25;;;15.30;99.90;;;;;;12531626;28;20067;-38
2021/08/30 06:37:08;;;;;;;29.55;21.25;;;15.30;99.90;;;;;;12536083;28;20048;-38
2021/08/30 06:43:43;;;;;;;28.30;20.27;;;15.30;99.90;;;;;;12521108;28;20447;-37
2021/08/30 06:50:08;;;;;;;29.45;19.98;;;15.30;99.90;;;;;;12530089;28;20574;-37
2021/08/30 06:56:31;;;;;;;29.40;20.25;;;15.30;99.90;;;;;;12520424;28;20065;-39
2021/08/30 07:02:55;;;;;;;29.08;19.67;;;15.30;99.90;;;;;;12535433;28;20075;-38
2021/08/30 07:09:18;;;;;;;27.20;18.92;;;15.50;99.90;;;;;;12515482;28;20056;-38
2021/08/30 07:15:36;;;;;;;28.17;20.00;;;15.50;99.90;;;;;;12517166;28;20075;-38
2021/08/30 07:22:13;;;;;;;24.15;18.98;;;15.50;99.90;;;;;;12531767;28;20059;-37
2021/08/30 07:28:59;;;;;;;24.25;18.38;;;15.60;99.90;;;;;;12525819;28;20048;-37
2021/08/30 07:35:47;;;;;;;26.80;18.92;;;15.60;99.90;;;;;;12509012;28;20401;-38
2021/08/30 07:42:24;;;;;;;27.58;19.08;;;15.80;99.90;;;;;;12527440;28;20053;-37
2021/08/30 07:48:50;;;;;;;25.55;18.02;;;15.80;99.90;;;;;;12521822;28;20473;-37
2021/08/30 07:55:10;;;;;;;25.90;17.70;;;16.00;99.90;;;;;;12522100;28;20045;-37
2021/08/30 08:01:21;;;;;;;24.00;17.23;;;15.90;99.90;;;;;;12496243;28;20114;-40
2021/08/30 08:07:31;;;;;;;23.80;16.05;;;15.90;99.90;;;;;;12519870;28;20057;-38
2021/08/30 08:13:40;;;;;;;20.60;15.23;;;15.80;99.90;;;;;;12519882;28;20041;-37
2021/08/30 08:19:46;;;;;;;21.90;15.70;;;15.80;99.90;;;;;;12519005;28;20076;-37
2021/08/30 08:25:52;;;;;;;19.85;14.95;;;15.80;99.90;;;;;;12516480;28;20382;-37
2021/08/30 08:32:46;;;;;;;18.63;15.02;;;15.80;99.90;;;;;;12517658;28;20102;-37
2021/08/30 08:39:00;;;;;;;18.88;14.80;;;15.70;99.90;;;;;;12525424;28;20056;-37
2021/08/30 08:45:11;;;;;;;19.33;14.80;;;15.60;99.90;;;;;;12504674;28;20378;-39
2021/08/30 08:51:16;;;;;;;16.92;13.48;;;15.80;99.90;;;;;;12524180;28;20061;-37
2021/08/30 08:57:28;;;;;;;18.00;12.73;;;15.90;99.90;;;;;;12513893;28;20057;-38
2021/08/30 09:03:48;;;;;;;17.17;13.32;;;16.30;99.90;;;;;;12533772;28;20044;-38
2021/08/30 09:09:57;;;;;;;16.02;11.38;;;16.50;99.90;;;;;;12510355;28;20686;-38
2021/08/30 09:16:03;;;;;;;14.05;11.38;;;16.70;99.90;;;;;;12522062;28;20889;-38
2021/08/30 09:22:11;;;;;;;16.42;11.63;;;16.60;99.90;;;;;;12523681;28;20110;-37
2021/08/30 09:28:37;;;;;;;16.27;11.88;;;16.50;99.90;;;;;;12524201;28;20493;-37
2021/08/30 09:34:44;;;;;;;15.10;11.82;;;16.30;99.90;;;;;;12525857;28;20042;-37
2021/08/30 09:40:47;;;;;;;13.95;10.80;;;16.30;99.90;;;;;;12520952;28;20107;-37
2021/08/30 09:46:50;;;;;;;12.82;9.95;;;16.30;99.90;;;;;;12528178;28;20564;-38
2021/08/30 09:52:57;;;;;;;16.08;10.52;;;16.90;99.90;;;;;;12517099;28;20057;-38
2021/08/30 09:59:01;;;;;;;13.45;9.60;;;17.30;99.90;;;;;;12509862;28;20057;-38
2021/08/30 10:05:09;;;;;;;11.63;8.52;;;17.40;99.90;;;;;;12528451;28;20049;-37
2021/08/30 10:11:18;;;;;;;14.32;9.10;;;16.90;99.90;;;;;;12513035;28;20527;-37
2021/08/30 10:17:26;;;;;;;11.30;8.40;;;17.20;99.90;;;;;;12526534;28;20053;-38
2021/08/30 10:23:38;;;;;;;13.25;8.43;;;17.20;99.90;;;;;;12520418;28;20053;-38
2021/08/30 10:29:45;;;;;;;15.57;9.20;;;16.90;99.90;;;;;;12530676;28;20053;-37
2021/08/30 10:35:56;;;;;;;9.82;8.68;;;17.10;99.90;;;;;;12521750;28;20512;-38
2021/08/30 10:42:13;;;;;;;12.23;7.35;;;17.70;99.90;;;;;;12530474;28;20049;-39
2021/08/30 10:48:19;;;;;;;15.90;8.10;;;18.20;99.90;;;;;;12515217;28;20182;-38
2021/08/30 10:54:22;;;;;;;12.68;6.78;;;18.40;99.90;;;;;;12512212;28;20554;-37
2021/08/30 11:00:35;;;;;;;12.20;7.47;;;18.10;99.90;;;;;;12521952;28;20056;-38
2021/08/30 11:07:05;;;;;;;9.82;7.00;;;17.80;99.90;;;;;;12508680;28;20524;-38
2021/08/30 11:13:25;;;;;;;9.95;7.38;;;17.80;99.90;;;;;;12503901;28;20072;-39
2021/08/30 11:20:00;;;;;;;9.00;6.60;;;18.30;99.90;;;;;;12527526;28;20065;-38
2021/08/30 11:26:41;;;;;;;8.02;6.40;;;18.30;99.90;;;;;;12532188;28;20049;-37
2021/08/30 11:33:07;;;;;;;10.30;7.30;;;18.10;99.90;;;;;;12517317;28;20052;-38
2021/08/30 11:39:52;;;;;;;8.27;6.03;;;18.60;99.90;;;;;;12527618;28;20049;-38
2021/08/30 11:46:15;;;;;;;9.95;6.57;;;18.80;99.90;;;;;;12505729;28;20436;-39
2021/08/30 11:52:27;;;;;;;9.98;6.25;;;18.60;99.90;;;;;;12531006;28;20405;-39
2021/08/30 11:58:36;;;;;;;9.45;5.95;;;18.70;99.90;;;;;;12518222;28;20122;-39
2021/08/30 12:04:39;;;;;;;10.40;5.57;;;18.70;99.90;;;;;;12518440;28;20110;-39
2021/08/30 12:10:44;;;;;;;8.95;5.88;;;18.60;99.90;;;;;;12515266;28;20763;-38
2021/08/30 12:16:58;;;;;;;10.50;6.65;;;18.70;99.90;;;;;;12496564;28;20502;-39
2021/08/30 12:23:05;;;;;;;11.18;5.75;;;18.50;99.90;;;;;;12521554;28;20050;-38
2021/08/30 12:29:09;;;;;;;9.27;6.63;;;18.20;99.90;;;;;;12518665;28;20040;-39
2021/08/30 12:35:16;;;;;;;;;;;17.90;99.90;;;;;;12510251;28;20048;-38
2021/08/30 12:41:20;;;;;;;9.43;5.70;;;18.00;99.90;;;;;;12518663;28;19921;-37
2021/08/30 12:47:23;;;;;;;11.32;5.50;;;18.10;99.90;;;;;;12522797;28;20508;-37
2021/08/30 12:53:26;;;;;;;12.57;6.07;;;18.30;99.90;;;;;;12516946;28;20500;-37
2021/08/30 12:59:29;;;;;;;7.10;5.07;;;18.40;99.90;;;;;;12525668;28;20076;-38
2021/08/30 13:05:39;;;;;;;7.70;4.80;;;18.60;99.90;;;;;;12520081;28;20299;-41
2021/08/30 13:11:44;;;;;;;10.70;4.95;;;18.70;99.90;;;;;;12519134;28;20729;-38
2021/08/30 13:17:53;;;;;;;7.18;4.95;;;18.70;99.90;;;;;;12519270;28;20064;-39
2021/08/30 13:24:01;;;;;;;8.13;4.93;;;18.50;99.90;;;;;;12518840;28;20459;-38
2021/08/30 13:30:10;;;;;;;7.90;5.43;;;18.00;99.90;;;;;;12526949;28;20383;-38
2021/08/30 13:36:15;;;;;;;7.88;5.68;;;18.00;99.90;;;;;;12509574;28;20048;-39
2021/08/30 13:42:18;;;;;;;11.68;6.07;;;17.80;99.90;;;;;;12516332;28;20056;-39
2021/08/30 13:48:23;;;;;;;10.27;6.00;;;18.00;99.90;;;;;;12528103;28;20444;-38
2021/08/30 13:54:27;;;;;;;;;;;18.00;99.90;;;;;;12523370;28;20108;-38
2021/08/30 14:00:32;;;;;;;8.33;5.67;;;18.30;99.90;;;;;;12526442;28;19928;-39
2021/08/30 14:06:40;;;;;;;8.25;5.55;;;18.60;99.90;;;;;;12522043;28;20086;-38
2021/08/30 14:12:45;;;;;;;9.23;6.18;;;18.10;99.90;;;;;;12518565;28;20188;-41
2021/08/30 14:18:47;;;;;;;8.55;5.60;;;18.10;99.90;;;;;;12520087;28;20053;-39
2021/08/30 14:24:50;;;;;;;7.85;5.20;;;18.30;99.90;;;;;;12519194;28;20119;-38
2021/08/30 14:30:53;;;;;;;6.87;4.77;;;18.20;99.90;;;;;;12519367;28;20067;-40
2021/08/30 14:36:57;;;;;;;6.35;4.80;;;17.90;99.90;;;;;;12504844;28;20049;-37
2021/08/30 14:42:59;;;;;;;8.73;5.43;;;17.70;99.90;;;;;;12524077;28;20106;-37
2021/08/30 14:49:04;;;;;;;8.38;4.78;;;17.80;99.90;;;;;;12519342;28;20052;-37
2021/08/30 14:55:12;;;;;;;5.95;4.72;;;17.80;99.90;;;;;;12522567;28;20136;-38
2021/08/30 15:01:15;;;;;;;7.03;4.32;;;17.90;99.90;;;;;;12515787;28;20449;-38
2021/08/30 15:07:23;;;;;;;5.68;4.00;;;18.40;99.90;;;;;;12524829;28;20057;-38
2021/08/30 15:13:26;;;;;;;5.32;4.00;;;18.50;99.90;;;;;;12517324;28;20054;-38
2021/08/30 15:19:29;;;;;;;6.20;3.75;;;18.80;99.90;;;;;;12517665;28;20049;-40
2021/08/30 15:25:33;;;;;;;5.30;4.10;;;18.70;99.90;;;;;;12510064;28;20037;-39
2021/08/30 15:31:37;;;;;;;7.45;4.13;;;18.60;99.90;;;;;;12508273;28;20140;-38
2021/08/30 15:37:40;;;;;;;7.22;3.88;;;18.40;99.90;;;;;;12521560;28;20404;-37
2021/08/30 15:43:43;;;;;;;8.83;4.33;;;18.40;99.90;;;;;;12511604;28;20053;-38
2021/08/30 15:49:46;;;;;;;7.20;4.35;;;17.90;99.90;;;;;;12521985;28;20099;-39
2021/08/30 15:55:49;;;;;;;6.97;4.10;;;17.90;99.90;;;;;;12515679;28;20507;-39
2021/08/30 16:01:51;;;;;;;5.57;3.97;;;18.10;99.90;;;;;;12520592;28;20049;-41
2021/08/30 16:07:55;;;;;;;5.25;4.13;;;18.50;99.90;;;;;;12519928;28;20057;-38
2021/08/30 16:13:59;;;;;;;8.03;4.30;;;18.20;99.90;;;;;;12506792;28;20535;-39
2021/08/30 16:20:02;;;;;;;7.88;4.45;;;18.50;99.90;;;;;;12514837;28;20307;-40
2021/08/30 16:26:08;;;;;;;7.43;4.20;;;18.50;99.90;;;;;;12496261;28;20203;-38
2021/08/30 16:32:13;;;;;;;7.22;4.28;;;18.50;99.90;;;;;;12505017;28;20075;-38
2021/08/30 16:38:16;;;;;;;7.90;4.25;;;18.00;99.90;;;;;;12511803;28;20409;-38
2021/08/30 16:44:20;;;;;;;5.93;4.40;;;17.80;99.90;;;;;;12512949;28;20094;-38
2021/08/30 16:50:24;;;;;;;7.82;4.95;;;17.60;99.90;;;;;;12495531;28;20068;-37
2021/08/30 16:56:27;;;;;;;6.63;4.63;;;17.30;99.90;;;;;;12490677;28;20042;-37
2021/08/30 17:02:30;;;;;;;5.57;4.20;;;17.50;99.90;;;;;;12525049;28;20060;-38
2021/08/30 17:08:32;;;;;;;6.90;4.80;;;17.40;99.90;;;;;;12520448;28;20068;-38
2021/08/30 17:14:35;;;;;;;6.68;4.65;;;17.30;99.90;;;;;;12515190;28;20044;-38
2021/08/30 17:20:45;;;;;;;8.25;4.75;;;17.20;99.90;;;;;;12526958;28;20045;-38
2021/08/30 17:26:51;;;;;;;6.53;5.03;;;17.00;99.90;;;;;;12527352;28;20073;-38
2021/08/30 17:32:54;;;;;;;8.23;5.60;;;17.00;99.90;;;;;;12532524;28;20067;-37
2021/08/30 17:39:01;;;;;;;7.45;4.90;;;17.00;99.90;;;;;;12527827;28;20080;-37
2021/08/30 17:45:11;;;;;;;7.53;5.00;;;17.00;99.90;;;;;;12508968;28;20047;-38
2021/08/30 17:51:24;;;;;;;7.10;4.75;;;17.00;99.90;;;;;;12527192;28;20049;-38
2021/08/30 17:57:40;;;;;;;6.70;4.43;;;17.00;99.90;;;;;;12530999;28;20060;-37
2021/08/30 18:03:50;;;;;;;6.00;4.60;;;16.90;99.90;;;;;;12517440;28;20090;-38
2021/08/30 18:09:54;;;;;;;6.35;5.18;;;16.80;99.90;;;;;;12526674;28;20052;-37
2021/08/30 18:15:57;;;;;;;7.45;5.28;;;16.70;99.90;;;;;;12520320;28;20079;-39
2021/08/30 18:22:03;;;;;;;8.02;5.43;;;16.60;99.90;;;;;;12519833;28;20060;-37
2021/08/30 18:28:16;;;;;;;10.40;5.03;;;16.50;99.90;;;;;;12505700;28;20052;-38
2021/08/30 18:34:20;;;;;;;8.07;5.97;;;16.40;99.90;;;;;;12514121;28;20049;-38
2021/08/30 18:40:28;;;;;;;8.45;5.70;;;16.30;99.90;;;;;;12517375;28;20056;-38
2021/08/30 18:46:35;;;;;;;7.13;5.82;;;16.20;99.90;;;;;;12502132;28;20475;-38
2021/08/30 18:52:49;;;;;;;9.45;6.07;;;16.20;99.90;;;;;;12506141;28;20053;-38
2021/08/30 18:58:57;;;;;;;6.88;5.47;;;16.30;99.90;;;;;;12521609;28;20132;-38
2021/08/30 19:05:02;;;;;;;9.40;5.93;;;16.30;99.90;;;;;;12502519;28;20049;-37
2021/08/30 19:11:12;;;;;;;10.68;6.07;;;16.20;99.90;;;;;;12505840;28;20127;-37
2021/08/30 19:17:15;;;;;;;7.15;5.90;;;16.10;99.90;;;;;;12520036;28;20098;-38
2021/08/30 19:23:17;;;;;;;12.20;6.60;;;16.10;99.90;;;;;;12504895;28;20489;-37
2021/08/30 19:29:19;;;;;;;8.90;6.25;;;16.10;99.90;;;;;;12522335;28;20430;-37
2021/08/30 19:35:24;;;;;;;9.77;6.43;;;16.30;99.90;;;;;;12521637;28;20048;-37
2021/08/30 19:41:28;;;;;;;9.90;6.78;;;16.30;99.90;;;;;;12516959;28;20053;-37
2021/08/30 19:47:30;;;;;;;8.73;6.13;;;16.30;99.90;;;;;;12525102;28;20135;-38
2021/08/30 19:53:32;;;;;;;10.00;6.70;;;16.40;99.90;;;;;;12517528;28;20409;-38
2021/08/30 19:59:34;;;;;;;8.60;5.97;;;16.30;99.90;;;;;;12519628;28;20049;-39
2021/08/30 20:05:42;;;;;;;9.68;7.07;;;16.20;99.90;;;;;;12511063;28;20091;-40
2021/08/30 20:11:44;;;;;;;10.30;6.80;;;16.10;99.90;;;;;;12516204;28;20503;-37
2021/08/30 20:17:50;;;;;;;9.05;6.43;;;16.10;99.90;;;;;;12515969;28;20082;-37
2021/08/30 20:23:53;;;;;;;8.43;6.85;;;16.20;99.90;;;;;;12516448;28;20361;-37
2021/08/30 20:29:57;;;;;;;10.20;6.60;;;16.10;99.90;;;;;;12514872;28;20087;-37
2021/08/30 20:36:00;;;;;;;8.98;6.82;;;16.20;99.90;;;;;;12517631;28;20564;-37
2021/08/30 20:42:02;;;;;;;10.73;6.82;;;16.20;99.90;;;;;;12520622;28;20053;-37
2021/08/30 20:48:04;;;;;;;8.65;6.90;;;16.30;99.90;;;;;;12513191;28;20048;-38
2021/08/30 20:54:07;;;;;;;10.25;6.78;;;16.10;99.90;;;;;;12513061;28;20132;-37
2021/08/30 21:00:12;;;;;;;10.27;7.00;;;16.20;99.90;;;;;;12523141;28;20052;-37
2021/08/30 21:06:14;;;;;;;10.27;7.55;;;16.10;99.90;;;;;;12530281;28;20900;-37
2021/08/30 21:12:16;;;;;;;11.95;7.88;;;16.10;99.90;;;;;;12515881;28;20155;-38
2021/08/30 21:18:19;;;;;;;9.10;7.38;;;16.00;99.90;;;;;;12522729;28;20053;-37
2021/08/30 21:24:21;;;;;;;13.48;8.07;;;16.00;99.90;;;;;;12519249;28;20053;-37
2021/08/30 21:30:25;;;;;;;11.75;6.78;;;16.00;99.90;;;;;;12526274;28;20547;-37
2021/08/30 21:36:28;;;;;;;10.00;7.53;;;16.00;99.90;;;;;;12509255;28;20056;-37
2021/08/30 21:42:32;;;;;;;9.50;7.50;;;15.90;99.90;;;;;;12524379;28;20825;-37
2021/08/30 21:48:37;;;;;;;10.00;7.40;;;16.00;99.90;;;;;;12511215;28;20527;-37
2021/08/30 21:54:39;;;;;;;9.25;7.45;;;15.90;99.90;;;;;;12521360;28;20099;-37
2021/08/30 22:00:41;;;;;;;10.35;7.75;;;15.90;99.90;;;;;;12517762;28;20535;-37
2021/08/30 22:06:43;;;;;;;10.73;7.43;;;15.80;99.90;;;;;;12518287;28;20519;-37
2021/08/30 22:12:45;;;;;;;11.55;8.40;;;15.80;99.90;;;;;;12520854;28;20440;-37
2021/08/30 22:18:47;;;;;;;10.30;7.75;;;15.80;99.90;;;;;;12523401;28;20118;-38
2021/08/30 22:24:49;;;;;;;11.10;7.25;;;15.80;99.90;;;;;;12525818;28;20050;-37
2021/08/30 22:30:52;;;;;;;12.27;7.70;;;15.90;99.90;;;;;;12510981;28;20040;-38
2021/08/30 22:36:54;;;;;;;11.73;7.72;;;16.00;99.90;;;;;;12518683;28;20045;-37
2021/08/30 22:42:56;;;;;;;10.45;7.90;;;16.00;99.90;;;;;;12513245;28;20718;-37
2021/08/30 22:48:58;;;;;;;13.75;8.48;;;15.90;99.90;;;;;;12525406;28;20461;-37
2021/08/30 22:55:08;;;;;;;10.98;8.55;;;16.00;99.90;;;;;;12501285;28;20448;-39
2021/08/30 23:01:10;;;;;;;10.35;8.48;;;15.90;99.90;;;;;;12521330;28;20429;-37
2021/08/30 23:07:13;;;;;;;10.20;8.15;;;16.00;99.90;;;;;;12520922;28;20142;-37
2021/08/30 23:13:15;;;;;;;11.07;8.63;;;15.90;99.90;;;;;;12520411;28;20087;-37
2021/08/30 23:19:17;;;;;;;11.95;8.60;;;15.90;99.90;;;;;;12519042;28;20198;-38
2021/08/30 23:25:20;;;;;;;10.93;9.15;;;16.00;99.90;;;;;;12517605;28;20071;-38
2021/08/30 23:31:22;;;;;;;10.00;8.48;;;15.90;99.90;;;;;;12514398;28;20045;-37
2021/08/30 23:37:26;;;;;;;14.32;9.05;;;15.90;99.90;;;;;;12519461;28;20042;-37
2021/08/30 23:43:28;;;;;;;10.77;8.82;;;15.90;99.90;;;;;;12514385;28;20059;-37
2021/08/30 23:49:31;;;;;;;12.77;9.68;;;15.90;99.90;;;;;;12517488;28;20056;-37
2021/08/30 23:55:33;;;;;;;13.85;10.38;;;15.80;99.90;;;;;;12514701;28;20631;-37
